Time;durP1;ratioP1;P1;durP2;ratioP2;P2;SDS_P1;SDS_P2;PMS_P1;PMS_P2;Temp;Humidity;BMP_temperature;BMP_pressure;BME280_temperature;BME280_humidity;BME280_pressure;Samples;Min_cycle;Max_cycle;Signal;HPM_P1;HPM_P2
2022/01/18 00:00:30;;;;;;;26.67;25.07;;;;;;;-141.02;100.00;55844.97;5134010;27;20746;-82
2022/01/18 00:02:58;;;;;;;24.23;22.83;;;;;;;-141.02;100.00;55844.97;5133827;27;20239;-80
2022/01/18 00:05:27;;;;;;;24.53;23.13;;;;;;;-141.02;100.00;55844.97;5134572;27;20200;-81
2022/01/18 00:07:55;;;;;;;24.20;22.70;;;;;;;-141.02;100.00;55844.97;5133668;27;20188;-75
2022/01/18 00:10:26;;;;;;;25.50;23.90;;;;;;;-141.02;100.00;55844.97;5133553;27;20718;-76
2022/01/18 00:13:08;;;;;;;25.23;23.83;;;;;;;-141.02;100.00;55844.97;5133893;27;20195;-77
2022/01/18 00:15:42;;;;;;;24.40;23.10;;;;;;;-141.02;100.00;55844.97;5133922;27;20188;-78
2022/01/18 00:18:13;;;;;;;26.93;25.33;;;;;;;-141.02;100.00;55844.97;5133546;27;20706;-77
2022/01/18 00:20:54;;;;;;;24.63;23.23;;;;;;;-141.02;100.00;55844.97;5133424;27;20215;-78
2022/01/18 00:23:21;;;;;;;24.40;22.90;;;;;;;-141.02;100.00;55844.97;5133367;27;20660;-78
2022/01/18 00:25:52;;;;;;;24.80;23.40;;;;;;;-141.02;100.00;55844.97;5133424;27;20544;-78
2022/01/18 00:28:19;;;;;;;25.70;24.20;;;;;;;-141.02;100.00;55844.97;5133390;27;20181;-79
2022/01/18 00:34:03;;;;;;;28.70;26.90;;;;;;;-141.02;100.00;55844.97;5050033;28;20708;-77
2022/01/18 00:36:37;;;;;;;32.13;29.93;;;;;;;-141.02;100.00;55844.97;5124340;27;20208;-79
2022/01/18 00:39:07;;;;;;;31.97;29.77;;;;;;;-141.02;100.00;55844.97;5133136;27;20189;-79
2022/01/18 00:41:34;;;;;;;35.83;33.30;;;;;;;-141.02;100.00;55844.97;5132176;27;20285;-77
2022/01/18 00:44:01;;;;;;;36.13;33.73;;;;;;;-141.02;100.00;55844.97;5133326;27;20227;-77
2022/01/18 00:46:30;;;;;;;38.70;36.10;;;;;;;-141.02;100.00;55844.97;5133386;27;20271;-77
2022/01/18 00:49:00;;;;;;;36.73;34.27;;;;;;;-141.02;100.00;55844.97;5132977;27;20556;-77
2022/01/18 00:51:28;;;;;;;32.17;30.13;;;;;;;-141.02;100.00;55844.97;5133542;27;20223;-78
2022/01/18 00:53:57;;;;;;;31.13;29.13;;;;;;;-141.02;100.00;55844.97;5133047;27;20192;-79
2022/01/18 00:56:27;;;;;;;32.67;30.57;;;;;;;-141.02;100.00;55844.97;5133293;27;20227;-78
2022/01/18 00:58:55;;;;;;;32.53;30.33;;;;;;;-141.02;100.00;55844.97;5132903;28;20192;-78
2022/01/18 01:01:24;;;;;;;27.07;25.37;;;;;;;-141.02;100.00;55844.97;5132869;28;20725;-77
2022/01/18 01:03:56;;;;;;;26.90;24.90;;;;;;;-141.02;100.00;55844.97;5132939;28;20288;-77
2022/01/18 01:06:24;;;;;;;25.80;24.10;;;;;;;-141.02;100.00;55844.97;5133155;27;20249;-73
2022/01/18 01:08:51;;;;;;;26.13;24.13;;;;;;;-141.02;100.00;55844.97;5132846;28;20197;-74
2022/01/18 01:11:19;;;;;;;30.77;28.93;;;;;;;-141.02;100.00;55844.97;5132998;28;20264;-74
2022/01/18 01:13:49;;;;;;;32.00;30.03;;;;;;;-141.02;100.00;55844.97;5132790;27;20197;-75
2022/01/18 01:16:46;;;;;;;30.43;28.63;;;;;;;-141.02;100.00;55844.97;5132729;28;20576;-75
2022/01/18 01:19:29;;;;;;;27.63;25.87;;;;;;;-141.02;100.00;55844.97;5132829;27;20249;-75
2022/01/18 01:36:00;;;;;;;44.23;41.00;;;;;;;-141.02;100.00;55844.97;5133500;28;20187;-73
2022/01/18 01:44:05;;;;;;;36.43;33.93;;;;;;;-141.02;100.00;55844.97;5132656;28;20188;-75
2022/01/18 01:46:33;;;;;;;36.17;33.77;;;;;;;-141.02;100.00;55844.97;5133648;28;20278;-74
2022/01/18 01:49:02;;;;;;;33.27;30.97;;;;;;;-141.02;100.00;55844.97;5132948;27;20201;-76
2022/01/18 01:51:31;;;;;;;34.00;31.63;;;;;;;-141.02;100.00;55844.97;5133056;27;20196;-75
2022/01/18 01:54:00;;;;;;;35.30;32.70;;;;;;;-141.02;100.00;55844.97;5136979;27;20233;-75
2022/01/18 01:56:27;;;;;;;31.97;29.40;;;;;;;-141.02;100.00;55844.97;5136505;27;20731;-72
2022/01/18 01:58:54;;;;;;;33.07;30.47;;;;;;;-141.02;100.00;55844.97;5137275;27;20192;-75
2022/01/18 02:01:22;;;;;;;34.03;31.43;;;;;;;-141.02;100.00;55844.97;5138164;27;20591;-77
2022/01/18 02:03:49;;;;;;;34.63;32.03;;;;;;;-141.02;100.00;55844.97;5136935;27;20721;-78
2022/01/18 02:06:16;;;;;;;35.57;33.07;;;;;;;-141.02;100.00;55844.97;5138076;27;20246;-77
2022/01/18 02:08:45;;;;;;;34.80;32.40;;;;;;;-141.02;100.00;55844.97;5138195;27;20638;-75
2022/01/18 02:11:13;;;;;;;36.60;34.10;;;;;;;-141.02;100.00;55844.97;5138041;27;20246;-75
2022/01/18 02:13:41;;;;;;;35.93;33.50;;;;;;;-141.02;100.00;55844.97;5138844;27;20197;-77
2022/01/18 02:21:45;;;;;;;35.33;32.87;;;;;;;-141.02;100.00;55844.97;5137564;27;20689;-78
2022/01/18 02:21:50;;;;;;;39.60;37.10;;;;;;;-141.02;100.00;55844.97;5137358;27;20361;-78
2022/01/18 02:24:19;;;;;;;38.00;35.60;;;;;;;-141.02;100.00;55844.97;5137458;27;20619;-76
2022/01/18 02:26:46;;;;;;;40.50;38.00;;;;;;;-141.02;100.00;55844.97;5137454;27;20666;-79
2022/01/18 02:29:14;;;;;;;41.00;38.50;;;;;;;-141.02;100.00;55844.97;5136353;27;20250;-80
2022/01/18 02:31:41;;;;;;;41.50;39.00;;;;;;;-141.02;100.00;55844.97;5135702;27;20228;-79
2022/01/18 02:34:11;;;;;;;42.17;39.73;;;;;;;-141.02;100.00;55844.97;5135565;27;20279;-79
2022/01/18 02:36:39;;;;;;;40.50;38.20;;;;;;;-141.02;100.00;55844.97;5135895;27;20620;-80
2022/01/18 02:39:08;;;;;;;39.80;37.50;;;;;;;-141.02;100.00;55844.97;5135743;27;20253;-79
2022/01/18 02:41:36;;;;;;;39.33;36.97;;;;;;;-141.02;100.00;55844.97;5135377;27;20228;-78
2022/01/18 02:44:05;;;;;;;39.97;37.57;;;;;;;-141.02;100.00;55844.97;5135782;27;20193;-78
2022/01/18 02:46:32;;;;;;;40.50;38.00;;;;;;;-141.02;100.00;55844.97;5135297;27;20279;-80
2022/01/18 02:49:00;;;;;;;38.97;36.63;;;;;;;-141.02;100.00;55844.97;5135245;27;20196;-80
2022/01/18 02:51:28;;;;;;;38.67;36.30;;;;;;;-141.02;100.00;55844.97;5135691;27;20232;-79
2022/01/18 02:53:58;;;;;;;34.23;32.03;;;;;;;-141.02;100.00;55844.97;5135230;27;20228;-79
2022/01/18 02:56:28;;;;;;;38.23;35.93;;;;;;;-141.02;100.00;55844.97;5135181;27;20196;-80
2022/01/18 02:59:03;;;;;;;39.60;37.30;;;;;;;-141.02;100.00;55844.97;5135192;27;20184;-80
2022/01/18 03:04:15;;;;;;;36.27;34.17;;;;;;;-141.02;100.00;55844.97;5133987;27;20187;-79
2022/01/18 03:06:42;;;;;;;35.17;33.07;;;;;;;-141.02;100.00;55844.97;5135200;27;20229;-79
2022/01/18 03:09:09;;;;;;;34.50;32.43;;;;;;;-141.02;100.00;55844.97;5134777;27;20644;-80
2022/01/18 03:11:38;;;;;;;35.63;33.63;;;;;;;-141.02;100.00;55844.97;5135002;27;20275;-80
2022/01/18 03:14:05;;;;;;;36.00;33.90;;;;;;;-141.02;100.00;55844.97;5135092;27;20279;-78
2022/01/18 03:16:32;;;;;;;34.33;32.43;;;;;;;-141.02;100.00;55844.97;5134580;27;20243;-78
2022/01/18 03:18:59;;;;;;;35.77;33.77;;;;;;;-141.02;100.00;55844.97;5135136;27;20189;-78
2022/01/18 03:21:27;;;;;;;33.97;32.07;;;;;;;-141.02;100.00;55844.97;5134485;27;20311;-79
2022/01/18 03:24:09;;;;;;;36.80;34.77;;;;;;;-141.02;100.00;55844.97;5134594;27;20196;-79
2022/01/18 03:28:04;;;;;;;36.00;34.00;;;;;;;-141.02;100.00;55844.97;5134948;27;20261;-77
2022/01/18 03:29:25;;;;;;;33.87;31.87;;;;;;;-141.02;100.00;55844.97;5134394;27;20652;-78
2022/01/18 03:31:52;;;;;;;35.83;33.73;;;;;;;-141.02;100.00;55844.97;5134580;27;20200;-79
2022/01/18 03:34:19;;;;;;;32.03;30.03;;;;;;;-141.02;100.00;55844.97;5134258;27;20195;-78
2022/01/18 03:36:46;;;;;;;33.33;30.87;;;;;;;-141.02;100.00;55844.97;5134653;27;20224;-78
2022/01/18 03:39:13;;;;;;;32.87;30.70;;;;;;;-141.02;100.00;55844.97;5134150;27;20196;-77
2022/01/18 03:41:42;;;;;;;32.70;30.60;;;;;;;-141.02;100.00;55844.97;5134031;27;20780;-79
2022/01/18 03:44:09;;;;;;;33.23;30.90;;;;;;;-141.02;100.00;55844.97;5134076;27;20188;-78
2022/01/18 03:46:37;;;;;;;34.33;32.13;;;;;;;-141.02;100.00;55844.97;5134017;27;20196;-78
2022/01/18 03:49:05;;;;;;;33.33;31.13;;;;;;;-141.02;100.00;55844.97;5134234;27;20567;-77
2022/01/18 03:51:33;;;;;;;32.53;30.43;;;;;;;-141.02;100.00;55844.97;5133972;27;20609;-78
2022/01/18 03:54:00;;;;;;;30.63;28.73;;;;;;;-141.02;100.00;55844.97;5133842;27;20581;-78
2022/01/18 03:56:28;;;;;;;32.40;30.30;;;;;;;-141.02;100.00;55844.97;5134304;27;20722;-79
2022/01/18 03:58:57;;;;;;;31.37;29.37;;;;;;;-141.02;100.00;55844.97;5134358;27;20276;-79
2022/01/18 04:01:24;;;;;;;31.70;29.70;;;;;;;-141.02;100.00;55844.97;5133779;27;20263;-76
2022/01/18 04:03:51;;;;;;;32.60;30.47;;;;;;;-141.02;100.00;55844.97;5134306;27;20192;-78
2022/01/18 04:06:18;;;;;;;30.73;28.60;;;;;;;-141.02;100.00;55844.97;5133684;27;20279;-78
2022/01/18 04:08:45;;;;;;;30.73;28.63;;;;;;;-141.02;100.00;55844.97;5133804;27;20288;-76
2022/01/18 04:11:12;;;;;;;26.40;24.50;;;;;;;-141.02;100.00;55844.97;5134087;27;20239;-78
2022/01/18 04:13:39;;;;;;;28.27;26.37;;;;;;;-141.02;100.00;55844.97;5134128;27;20214;-78
2022/01/18 04:16:07;;;;;;;28.97;27.03;;;;;;;-141.02;100.00;55844.97;5133632;27;20280;-77
2022/01/18 04:18:48;;;;;;;29.10;27.20;;;;;;;-141.02;100.00;55844.97;5133553;27;20232;-75
2022/01/18 04:26:56;;;;;;;28.43;26.43;;;;;;;-141.02;100.00;55844.97;5133854;27;20201;-74
2022/01/18 04:29:25;;;;;;;29.17;27.17;;;;;;;-141.02;100.00;55844.97;5133705;27;20233;-76
2022/01/18 04:31:53;;;;;;;28.70;26.70;;;;;;;-141.02;100.00;55844.97;5133766;27;20276;-77
2022/01/18 04:34:20;;;;;;;28.93;26.93;;;;;;;-141.02;100.00;55844.97;5134087;27;20275;-76
2022/01/18 04:36:49;;;;;;;28.27;26.27;;;;;;;-141.02;100.00;55844.97;5133725;27;20192;-72
2022/01/18 04:39:17;;;;;;;26.90;25.00;;;;;;;-141.02;100.00;55844.97;5133179;27;20572;-76
2022/01/18 04:41:46;;;;;;;27.93;25.93;;;;;;;-141.02;100.00;55844.97;5133221;27;20227;-77
2022/01/18 04:49:40;;;;;;;28.13;26.17;;;;;;;-141.02;100.00;55844.97;5133260;27;20183;-79
2022/01/18 04:52:10;;;;;;;28.17;26.17;;;;;;;-141.02;100.00;55844.97;5133057;27;20241;-78
2022/01/18 04:54:41;;;;;;;26.87;24.97;;;;;;;-141.02;100.00;55844.97;5133632;28;20241;-77
2022/01/18 04:59:53;;;;;;;24.40;22.77;;;;;;;-141.02;100.00;55844.97;5133993;28;20540;-78
2022/01/18 05:02:22;;;;;;;26.23;24.43;;;;;;;-141.02;100.00;55844.97;5132848;28;20715;-79
2022/01/18 05:04:50;;;;;;;25.87;24.07;;;;;;;-141.02;100.00;55844.97;5132967;27;20201;-77
2022/01/18 05:07:18;;;;;;;27.80;26.10;;;;;;;-141.02;100.00;55844.97;5132916;27;20232;-79
2022/01/18 05:09:49;;;;;;;33.10;31.00;;;;;;;-141.02;100.00;55844.97;5132994;28;20654;-79
2022/01/18 05:12:25;;;;;;;27.60;26.00;;;;;;;-141.02;100.00;55844.97;5133119;28;20260;-78
2022/01/18 05:14:54;;;;;;;27.67;26.07;;;;;;;-141.02;100.00;55844.97;5132809;28;20202;-78
2022/01/18 05:17:42;;;;;;;26.47;24.97;;;;;;;-141.02;100.00;55844.97;5132521;28;20293;-79
2022/01/18 05:22:59;;;;;;;27.70;26.10;;;;;;;-141.02;100.00;55844.97;5118842;27;20230;-78
2022/01/18 05:25:28;;;;;;;25.90;24.40;;;;;;;-141.02;100.00;55844.97;5132823;27;20185;-77
2022/01/18 05:27:56;;;;;;;26.97;25.37;;;;;;;-141.02;100.00;55844.97;5135031;27;20228;-77
2022/01/18 05:30:24;;;;;;;32.83;31.03;;;;;;;-141.02;100.00;55844.97;5136649;27;20642;-77
2022/01/18 05:32:53;;;;;;;31.43;29.40;;;;;;;-141.02;100.00;55844.97;5136968;27;20268;-78
2022/01/18 05:35:20;;;;;;;30.33;28.63;;;;;;;-141.02;100.00;55844.97;5137231;27;20209;-76
2022/01/18 05:37:48;;;;;;;31.33;29.63;;;;;;;-141.02;100.00;55844.97;5136562;27;20283;-78
2022/01/18 05:40:15;;;;;;;31.67;29.87;;;;;;;-141.02;100.00;55844.97;5136857;27;20270;-77
2022/01/18 05:42:43;;;;;;;28.80;27.00;;;;;;;-141.02;100.00;55844.97;5136391;27;20307;-79
2022/01/18 05:45:11;;;;;;;25.07;23.57;;;;;;;-141.02;100.00;55844.97;5136745;27;20196;-78
2022/01/18 05:47:39;;;;;;;25.73;24.03;;;;;;;-141.02;100.00;55844.97;5136757;27;20253;-76
2022/01/18 05:50:09;;;;;;;25.13;23.53;;;;;;;-141.02;100.00;55844.97;5136447;27;20193;-78
2022/01/18 05:52:36;;;;;;;25.53;23.83;;;;;;;-141.02;100.00;55844.97;5136926;27;20189;-78
2022/01/18 05:55:05;;;;;;;23.90;22.30;;;;;;;-141.02;100.00;55844.97;5136561;27;20253;-79
2022/01/18 05:57:32;;;;;;;26.30;24.57;;;;;;;-141.02;100.00;55844.97;5136414;27;20674;-79
2022/01/18 06:00:03;;;;;;;27.33;25.30;;;;;;;-141.02;100.00;55844.97;5136168;27;20288;-79
2022/01/18 06:02:41;;;;;;;25.80;24.10;;;;;;;-141.02;100.00;55844.97;5136550;27;20213;-78
2022/01/18 06:07:55;;;;;;;24.47;22.97;;;;;;;-141.02;100.00;55844.97;5136925;27;20314;-80
2022/01/18 06:10:22;;;;;;;25.77;24.03;;;;;;;-141.02;100.00;55844.97;5136889;27;20269;-79
2022/01/18 06:12:49;;;;;;;24.83;23.33;;;;;;;-141.02;100.00;55844.97;5136529;27;20265;-79
2022/01/18 06:15:17;;;;;;;24.37;22.87;;;;;;;-141.02;100.00;55844.97;5135830;27;20225;-79
2022/01/18 06:17:44;;;;;;;24.63;22.87;;;;;;;-141.02;100.00;55844.97;5135849;27;20754;-78
2022/01/18 06:20:13;;;;;;;24.50;22.97;;;;;;;-141.02;100.00;55844.97;5136764;27;20192;-79
2022/01/18 06:22:40;;;;;;;24.77;23.17;;;;;;;-141.02;100.00;55844.97;5135991;27;20300;-77
2022/01/18 06:25:09;;;;;;;22.83;21.53;;;;;;;-141.02;100.00;55844.97;5136060;27;20281;-77
2022/01/18 06:27:36;;;;;;;23.27;21.90;;;;;;;-141.02;100.00;55844.97;5135891;27;20202;-78
2022/01/18 06:30:05;;;;;;;22.93;21.60;;;;;;;-141.02;100.00;55844.97;5135974;27;20279;-78
2022/01/18 06:32:33;;;;;;;22.27;20.90;;;;;;;-141.02;100.00;55844.97;5135492;27;20663;-78
2022/01/18 06:35:00;;;;;;;22.17;20.73;;;;;;;-141.02;100.00;55844.97;5135980;27;20225;-78
2022/01/18 06:37:28;;;;;;;22.80;21.40;;;;;;;-141.02;100.00;55844.97;5135690;27;20196;-77
2022/01/18 06:39:57;;;;;;;23.03;21.47;;;;;;;-141.02;100.00;55844.97;5135324;27;20200;-79
2022/01/18 06:42:24;;;;;;;23.60;22.10;;;;;;;-141.02;100.00;55844.97;5135288;27;20220;-79
2022/01/18 06:44:52;;;;;;;24.67;23.23;;;;;;;-141.02;100.00;55844.97;5135596;27;20272;-79
2022/01/18 06:47:19;;;;;;;23.80;21.77;;;;;;;-141.02;100.00;55844.97;5135654;27;20280;-78
2022/01/18 06:49:46;;;;;;;25.30;23.60;;;;;;;-141.02;100.00;55844.97;5135256;27;20196;-80
2022/01/18 06:52:13;;;;;;;24.43;22.83;;;;;;;-141.02;100.00;55844.97;5135550;27;20276;-79
2022/01/18 06:54:41;;;;;;;25.40;23.90;;;;;;;-141.02;100.00;55844.97;5135474;27;20198;-80
2022/01/18 06:57:08;;;;;;;24.97;23.23;;;;;;;-141.02;100.00;55844.97;5135635;27;20238;-79
2022/01/18 06:59:35;;;;;;;22.83;21.43;;;;;;;-141.02;100.00;55844.97;5135212;27;20253;-78
2022/01/18 07:02:03;;;;;;;22.90;21.20;;;;;;;-141.02;100.00;55844.97;5134933;27;20216;-78
2022/01/18 07:04:30;;;;;;;25.50;23.90;;;;;;;-141.02;100.00;55844.97;5135109;27;20201;-78
2022/01/18 07:06:58;;;;;;;24.80;23.27;;;;;;;-141.02;100.00;55844.97;5135273;27;20193;-79
2022/01/18 07:09:25;;;;;;;24.57;22.87;;;;;;;-141.02;100.00;55844.97;5135305;27;20203;-79
2022/01/18 07:11:56;;;;;;;24.40;22.80;;;;;;;-141.02;100.00;55844.97;5135065;27;20188;-80
2022/01/18 07:14:24;;;;;;;23.77;22.17;;;;;;;-141.02;100.00;55844.97;5134822;27;20196;-79
2022/01/18 07:16:51;;;;;;;23.47;21.87;;;;;;;-141.02;100.00;55844.97;5134559;27;20706;-77
2022/01/18 07:19:18;;;;;;;22.47;20.87;;;;;;;-141.02;100.00;55844.97;5135006;27;20224;-79
2022/01/18 07:21:45;;;;;;;23.97;22.27;;;;;;;-141.02;100.00;55844.97;5135111;27;20235;-78
2022/01/18 07:24:18;;;;;;;26.50;24.37;;;;;;;-141.02;100.00;55844.97;5134619;27;20666;-79
2022/01/18 07:26:46;;;;;;;23.50;21.90;;;;;;;-141.02;100.00;55844.97;5134521;27;20184;-79
2022/01/18 07:29:15;;;;;;;25.77;23.87;;;;;;;-141.02;100.00;55844.97;5134452;27;20193;-80
2022/01/18 07:31:42;;;;;;;23.40;21.70;;;;;;;-141.02;100.00;55844.97;5134751;27;20611;-78
2022/01/18 07:34:09;;;;;;;24.20;22.40;;;;;;;-141.02;100.00;55844.97;5134605;27;20192;-78
2022/01/18 07:36:36;;;;;;;25.67;23.87;;;;;;;-141.02;100.00;55844.97;5134258;27;20232;-78
2022/01/18 07:39:03;;;;;;;25.57;23.77;;;;;;;-141.02;100.00;55844.97;5135334;27;20236;-76
2022/01/18 07:41:30;;;;;;;26.43;24.53;;;;;;;-141.02;100.00;55844.97;5134447;27;20248;-77
2022/01/18 07:43:57;;;;;;;27.07;25.17;;;;;;;-141.02;100.00;55844.97;5134095;27;20197;-83
2022/01/18 07:46:26;;;;;;;29.13;27.13;;;;;;;-141.02;100.00;55844.97;5134159;27;20729;-78
2022/01/18 07:48:53;;;;;;;29.27;27.07;;;;;;;-141.02;100.00;55844.97;5134458;27;20200;-79
2022/01/18 07:51:20;;;;;;;26.87;24.67;;;;;;;-141.02;100.00;55844.97;5133920;27;20192;-80
2022/01/18 07:53:47;;;;;;;29.07;26.87;;;;;;;-141.02;100.00;55844.97;5134330;27;20211;-79
2022/01/18 07:56:14;;;;;;;25.47;23.77;;;;;;;-141.02;100.00;55844.97;5134222;27;20200;-79
2022/01/18 07:58:41;;;;;;;25.20;23.40;;;;;;;-141.02;100.00;55844.97;5133928;27;20662;-80
2022/01/18 08:01:08;;;;;;;24.73;23.03;;;;;;;-141.02;100.00;55844.97;5134998;27;20196;-78
2022/01/18 08:03:37;;;;;;;28.80;26.73;;;;;;;-141.02;100.00;55844.97;5134600;27;20259;-80
2022/01/18 08:06:04;;;;;;;29.43;27.17;;;;;;;-141.02;100.00;55844.97;5134214;27;20192;-79
2022/01/18 08:08:32;;;;;;;25.73;23.93;;;;;;;-141.02;100.00;55844.97;5134428;27;20208;-79
2022/01/18 08:10:59;;;;;;;27.57;25.43;;;;;;;-141.02;100.00;55844.97;5134238;27;20203;-80
2022/01/18 08:13:34;;;;;;;27.03;25.13;;;;;;;-141.02;100.00;55844.97;5133669;27;20200;-76
2022/01/18 08:16:21;;;;;;;29.83;27.77;;;;;;;-141.02;100.00;55844.97;5133768;27;20199;-81
2022/01/18 08:18:50;;;;;;;31.93;29.90;;;;;;;-141.02;100.00;55844.97;5133755;27;20231;-81
2022/01/18 08:21:18;;;;;;;31.13;29.33;;;;;;;-141.02;100.00;55844.97;5133806;27;20578;-78
2022/01/18 08:23:45;;;;;;;32.50;29.87;;;;;;;-141.02;100.00;55844.97;5133899;27;20228;-80
2022/01/18 08:26:12;;;;;;;32.63;30.43;;;;;;;-141.02;100.00;55844.97;5133671;27;20283;-79
2022/01/18 08:28:39;;;;;;;31.93;29.57;;;;;;;-141.02;100.00;55844.97;5133627;27;20214;-78
2022/01/18 08:31:07;;;;;;;30.90;28.60;;;;;;;-141.02;100.00;55844.97;5133391;27;20193;-76
2022/01/18 08:33:34;;;;;;;30.40;28.27;;;;;;;-141.02;100.00;55844.97;5133296;27;20249;-78
2022/01/18 08:36:06;;;;;;;34.03;31.53;;;;;;;-141.02;100.00;55844.97;5133253;27;20288;-81
2022/01/18 08:38:34;;;;;;;33.17;30.83;;;;;;;-141.02;100.00;55844.97;5133563;27;20188;-80
2022/01/18 08:41:02;;;;;;;34.43;31.93;;;;;;;-141.02;100.00;55844.97;5133436;27;20623;-77
2022/01/18 08:43:30;;;;;;;32.60;30.43;;;;;;;-141.02;100.00;55844.97;5133545;27;20275;-80
2022/01/18 08:45:57;;;;;;;33.07;30.70;;;;;;;-141.02;100.00;55844.97;5133559;27;20200;-80
2022/01/18 08:48:25;;;;;;;35.53;32.90;;;;;;;-141.02;100.00;55844.97;5133503;27;20279;-79
2022/01/18 08:50:52;;;;;;;34.50;32.10;;;;;;;-141.02;100.00;55844.97;5133091;27;20234;-76
2022/01/18 08:53:20;;;;;;;37.73;35.03;;;;;;;-141.02;100.00;55844.97;5133536;27;20200;-80
2022/01/18 08:55:47;;;;;;;35.93;33.33;;;;;;;-141.02;100.00;55844.97;5134209;28;20228;-76
2022/01/18 08:58:15;;;;;;;34.00;31.80;;;;;;;-141.02;100.00;55844.97;5134341;27;20192;-77
2022/01/18 09:00:42;;;;;;;34.97;32.40;;;;;;;-141.02;100.00;55844.97;5134536;28;20288;-76
2022/01/18 09:03:11;;;;;;;33.77;31.50;;;;;;;-141.02;100.00;55844.97;5137352;27;20660;-79
2022/01/18 09:05:38;;;;;;;35.73;33.33;;;;;;;-141.02;100.00;55844.97;5139612;27;20227;-81
2022/01/18 09:08:08;;;;;;;36.53;34.13;;;;;;;-141.02;100.00;55844.97;5139553;27;20268;-77
2022/01/18 09:10:36;;;;;;;30.73;28.53;;;;;;;-141.02;100.00;55844.97;5138979;27;20196;-75
2022/01/18 09:13:03;;;;;;;28.77;26.73;;;;;;;-141.02;100.00;55844.97;5138920;27;20345;-76
2022/01/18 09:15:30;;;;;;;26.63;24.73;;;;;;;-141.02;100.00;55844.97;5138115;27;20628;-75
2022/01/18 09:17:57;;;;;;;30.57;28.50;;;;;;;-141.02;100.00;55844.97;5137350;27;20322;-75
2022/01/18 09:20:24;;;;;;;36.63;34.43;;;;;;;-141.02;100.00;55844.97;5137476;27;20196;-78
2022/01/18 09:22:53;;;;;;;28.73;26.87;;;;;;;-141.02;100.00;55844.97;5136994;27;20223;-76
2022/01/18 09:25:22;;;;;;;41.03;38.53;;;;;;;-141.02;100.00;55844.97;5137893;27;20200;-74
2022/01/18 09:27:51;;;;;;;40.33;37.67;;;;;;;-141.02;100.00;55844.97;5137602;27;20340;-77
2022/01/18 09:30:18;;;;;;;28.50;26.60;;;;;;;-141.02;100.00;55844.97;5137110;27;20230;-74
2022/01/18 09:32:47;;;;;;;27.77;25.97;;;;;;;-141.02;100.00;55844.97;5136699;27;20200;-74
2022/01/18 09:35:15;;;;;;;28.63;26.57;;;;;;;-141.02;100.00;55844.97;5136770;27;20729;-79
2022/01/18 09:37:43;;;;;;;28.67;26.87;;;;;;;-141.02;100.00;55844.97;5137034;27;20224;-77
2022/01/18 09:40:14;;;;;;;26.70;25.03;;;;;;;-141.02;100.00;55844.97;5137226;27;20308;-76
2022/01/18 09:42:44;;;;;;;27.20;25.50;;;;;;;-141.02;100.00;55844.97;5136845;27;20241;-77
2022/01/18 09:45:16;;;;;;;26.47;24.83;;;;;;;-141.02;100.00;55844.97;5136976;27;20622;-76
2022/01/18 09:47:46;;;;;;;27.57;25.83;;;;;;;-141.02;100.00;55844.97;5136634;27;20237;-76
2022/01/18 09:50:16;;;;;;;28.57;26.77;;;;;;;-141.02;100.00;55844.97;5136904;27;20196;-75
2022/01/18 09:52:43;;;;;;;27.53;25.83;;;;;;;-141.02;100.00;55844.97;5136919;27;20222;-79
2022/01/18 09:55:11;;;;;;;26.80;25.00;;;;;;;-141.02;100.00;55844.97;5137221;27;20618;-75
2022/01/18 09:57:39;;;;;;;26.60;24.80;;;;;;;-141.02;100.00;55844.97;5136628;27;20219;-75
2022/01/18 10:00:07;;;;;;;27.07;25.27;;;;;;;-141.02;100.00;55844.97;5136241;27;20193;-74
2022/01/18 10:02:36;;;;;;;27.07;25.37;;;;;;;-141.02;100.00;55844.97;5136443;27;20247;-76
2022/01/18 10:05:18;;;;;;;26.67;24.97;;;;;;;-141.02;100.00;55844.97;5136719;27;20226;-79
2022/01/18 10:07:45;;;;;;;26.77;25.17;;;;;;;-141.02;100.00;55844.97;5136139;27;20242;-78
2022/01/18 10:10:13;;;;;;;24.93;23.50;;;;;;;-141.02;100.00;55844.97;5136321;27;20196;-79
2022/01/18 10:12:40;;;;;;;29.20;27.37;;;;;;;-141.02;100.00;55844.97;5135697;27;20196;-78
2022/01/18 10:15:07;;;;;;;28.20;26.40;;;;;;;-141.02;100.00;55844.97;5136361;27;20196;-78
2022/01/18 10:17:37;;;;;;;28.73;26.63;;;;;;;-141.02;100.00;55844.97;5136107;27;20236;-78
2022/01/18 10:20:07;;;;;;;27.97;26.07;;;;;;;-141.02;100.00;55844.97;5136572;27;20655;-78
2022/01/18 10:22:40;;;;;;;29.17;27.17;;;;;;;-141.02;100.00;55844.97;5136063;27;20725;-77
2022/01/18 10:25:16;;;;;;;28.47;26.57;;;;;;;-141.02;100.00;55844.97;5136449;27;20279;-77
2022/01/18 10:27:43;;;;;;;26.87;25.17;;;;;;;-141.02;100.00;55844.97;5135808;27;20232;-79
2022/01/18 10:30:16;;;;;;;28.07;25.97;;;;;;;-141.02;100.00;55844.97;5135996;27;20192;-78
2022/01/18 10:33:07;;;;;;;26.80;25.20;;;;;;;-141.02;100.00;55844.97;5135982;27;20220;-78
2022/01/18 10:35:34;;;;;;;28.10;26.30;;;;;;;-141.02;100.00;55844.97;5135865;27;20577;-79
2022/01/18 10:38:01;;;;;;;27.17;25.47;;;;;;;-141.02;100.00;55844.97;5135749;27;20235;-78
2022/01/18 10:40:29;;;;;;;26.63;24.93;;;;;;;-141.02;100.00;55844.97;5135893;27;20228;-78
2022/01/18 10:43:03;;;;;;;26.97;25.00;;;;;;;-141.02;100.00;55844.97;5135803;27;20296;-76
2022/01/18 10:45:34;;;;;;;27.03;25.23;;;;;;;-141.02;100.00;55844.97;5135393;27;20187;-78
2022/01/18 10:48:10;;;;;;;27.27;25.23;;;;;;;-141.02;100.00;55844.97;5135705;27;20184;-77
2022/01/18 10:50:40;;;;;;;26.93;25.13;;;;;;;-141.02;100.00;55844.97;5135539;27;20189;-75
2022/01/18 10:53:15;;;;;;;25.93;24.13;;;;;;;-141.02;100.00;55844.97;5135366;27;20188;-79
2022/01/18 10:55:44;;;;;;;28.77;26.37;;;;;;;-141.02;100.00;55844.97;5135670;27;20188;-78
2022/01/18 10:58:12;;;;;;;27.77;25.73;;;;;;;-141.02;100.00;55844.97;5135225;27;20200;-78
2022/01/18 11:00:39;;;;;;;26.00;24.30;;;;;;;-141.02;100.00;55844.97;5135462;27;20666;-79
2022/01/18 11:03:08;;;;;;;25.47;23.87;;;;;;;-141.02;100.00;55844.97;5135244;27;20261;-79
2022/01/18 11:05:36;;;;;;;27.97;25.90;;;;;;;-141.02;100.00;55844.97;5135418;27;20249;-78
2022/01/18 11:08:06;;;;;;;27.70;25.90;;;;;;;-141.02;100.00;55844.97;5135805;27;20200;-79
2022/01/18 11:10:35;;;;;;;28.33;26.30;;;;;;;-141.02;100.00;55844.97;5135606;27;20188;-78
2022/01/18 11:13:10;;;;;;;25.17;23.67;;;;;;;-141.02;100.00;55844.97;5135716;27;20221;-78
2022/01/18 11:15:41;;;;;;;26.97;25.17;;;;;;;-141.02;100.00;55844.97;5135125;27;20184;-78
2022/01/18 11:18:17;;;;;;;27.40;25.00;;;;;;;-141.02;100.00;55844.97;5134779;27;20228;-79
2022/01/18 11:20:46;;;;;;;27.60;25.73;;;;;;;-141.02;100.00;55844.97;5134992;27;20188;-78
2022/01/18 11:23:15;;;;;;;27.43;25.63;;;;;;;-141.02;100.00;55844.97;5134606;27;20303;-78
2022/01/18 11:25:42;;;;;;;28.40;26.50;;;;;;;-141.02;100.00;55844.97;5134041;27;20227;-80
2022/01/18 11:28:12;;;;;;;28.63;26.63;;;;;;;-141.02;100.00;55844.97;5134711;27;20643;-78
2022/01/18 11:30:41;;;;;;;26.70;25.00;;;;;;;-141.02;100.00;55844.97;5134898;27;20196;-78
2022/01/18 11:33:13;;;;;;;26.87;25.13;;;;;;;-141.02;100.00;55844.97;5134401;27;20246;-78
2022/01/18 11:35:47;;;;;;;29.03;27.23;;;;;;;-141.02;100.00;55844.97;5134837;27;20222;-79
2022/01/18 11:38:20;;;;;;;26.90;25.10;;;;;;;-141.02;100.00;55844.97;5134881;27;20192;-78
2022/01/18 11:40:49;;;;;;;26.63;24.93;;;;;;;-141.02;100.00;55844.97;5134449;27;20220;-78
2022/01/18 11:43:35;;;;;;;28.63;26.70;;;;;;;-141.02;100.00;55844.97;5134442;27;20276;-78
2022/01/18 11:46:21;;;;;;;28.27;26.57;;;;;;;-141.02;100.00;55844.97;5134512;27;20686;-79
2022/01/18 11:48:58;;;;;;;29.17;27.37;;;;;;;-141.02;100.00;55844.97;5134551;27;20233;-78
2022/01/18 11:51:36;;;;;;;27.90;26.20;;;;;;;-141.02;100.00;55844.97;5134414;27;20188;-78